createdAt,value
2017-12-06T00:00:33.098Z,89.14
2017-12-06T00:01:13.678Z,89.04
2017-12-06T00:01:54.263Z,89.14
2017-12-06T00:02:34.839Z,88.76
2017-12-06T00:03:15.408Z,88.57
2017-12-06T00:03:55.974Z,88.57
2017-12-06T00:04:36.556Z,88.67
2017-12-06T00:05:17.175Z,88.19
2017-12-06T00:05:57.761Z,88.09
2017-12-06T00:06:38.335Z,88
2017-12-06T00:07:18.925Z,87.43
2017-12-06T00:07:59.488Z,87.62
2017-12-06T00:08:40.099Z,87.34
2017-12-06T00:09:20.654Z,87.62
2017-12-06T00:10:01.222Z,87.62
2017-12-06T00:10:41.775Z,87.71
2017-12-06T00:11:22.381Z,87.71
2017-12-06T00:12:02.962Z,87.43
2017-12-06T00:12:43.519Z,87.24
2017-12-06T00:13:24.117Z,87.14
2017-12-06T00:14:04.703Z,86.76
2017-12-06T00:14:45.272Z,87.52
2017-12-06T00:15:25.837Z,87.05
2017-12-06T00:16:06.395Z,87.43
2017-12-06T00:16:47.023Z,87.05
2017-12-06T00:17:27.618Z,87.14
2017-12-06T00:18:08.146Z,86.67
2017-12-06T00:18:48.746Z,86.86
2017-12-06T00:19:29.332Z,86.86
2017-12-06T00:20:09.914Z,86.95
2017-12-06T00:20:50.472Z,86.86
2017-12-06T00:21:31.072Z,87.14
2017-12-06T00:22:11.651Z,86.29
2017-12-06T00:22:52.227Z,86.19
2017-12-06T00:23:32.808Z,86.29
2017-12-06T00:24:13.373Z,86.1
2017-12-06T00:24:53.999Z,86.19
2017-12-06T00:25:34.558Z,85.91
2017-12-06T00:26:15.141Z,86.1
2017-12-06T00:26:55.806Z,86
2017-12-06T00:27:36.373Z,86.1
2017-12-06T00:28:16.999Z,85.24
2017-12-06T00:28:57.583Z,85.53
2017-12-06T00:29:38.142Z,85.81
2017-12-06T00:30:18.711Z,85.24
2017-12-06T00:30:59.284Z,85.62
2017-12-06T00:31:39.843Z,85.43
2017-12-06T00:32:20.445Z,85.43
2017-12-06T00:33:01.007Z,85.24
2017-12-06T00:33:41.571Z,85.24
2017-12-06T00:34:22.190Z,85.15
2017-12-06T00:35:02.755Z,84.67
2017-12-06T00:35:43.345Z,84.95
2017-12-06T00:36:23.928Z,84.95
2017-12-06T00:37:04.505Z,85.15
2017-12-06T00:37:45.102Z,85.15
2017-12-06T00:38:25.681Z,85.24
2017-12-06T00:39:06.260Z,85.05
2017-12-06T00:39:46.849Z,84.67
2017-12-06T00:40:27.419Z,84.1
2017-12-06T00:41:08.028Z,84.2
2017-12-06T00:41:48.635Z,84.2
2017-12-06T00:42:29.220Z,84.58
2017-12-06T00:43:09.797Z,85.15
2017-12-06T00:43:50.385Z,84.58
2017-12-06T00:44:30.958Z,84.86
2017-12-06T00:45:11.577Z,84.29
2017-12-06T00:45:52.138Z,84.81
2017-12-06T00:46:32.726Z,84.48
2017-12-06T00:47:13.311Z,84.01
2017-12-06T00:47:53.910Z,83.91
2017-12-06T00:48:34.493Z,83.86
2017-12-06T00:49:15.072Z,83.82
2017-12-06T00:49:55.659Z,83.82
2017-12-06T00:50:36.247Z,83.82
2017-12-06T00:51:16.826Z,83.53
2017-12-06T00:51:57.384Z,83.53
2017-12-06T00:52:37.955Z,83.53
2017-12-06T00:53:18.529Z,83.44
2017-12-06T00:53:59.089Z,83.53
2017-12-06T00:54:39.664Z,83.82
2017-12-06T00:55:20.255Z,83.72
2017-12-06T00:56:00.845Z,83.82
2017-12-06T00:56:41.426Z,83.82
2017-12-06T00:57:21.991Z,83.91
2017-12-06T00:58:02.569Z,83.44
2017-12-06T00:58:43.186Z,83.25
2017-12-06T00:59:23.765Z,83.34
2017-12-06T01:00:04.338Z,83.44
2017-12-06T01:00:44.917Z,83.34
2017-12-06T01:01:25.477Z,83.62
2017-12-06T01:02:06.106Z,83.53
2017-12-06T01:02:46.637Z,83.53
2017-12-06T01:03:27.200Z,83.62
2017-12-06T01:04:07.766Z,83.72
2017-12-06T01:04:48.368Z,83.62
2017-12-06T01:05:28.946Z,83.53
2017-12-06T01:06:09.529Z,83.34
2017-12-06T01:06:50.083Z,83.44
2017-12-06T01:07:30.660Z,82.77
2017-12-06T01:08:11.231Z,83.15
2017-12-06T01:08:51.827Z,83.25
2017-12-06T01:09:32.393Z,83.44
2017-12-06T01:10:12.958Z,83.44
2017-12-06T01:10:53.534Z,83.15
2017-12-06T01:11:34.123Z,83.15
2017-12-06T01:12:14.691Z,83.15
2017-12-06T01:12:55.261Z,82.77
2017-12-06T01:13:35.821Z,82.58
2017-12-06T01:14:16.406Z,82.62
2017-12-06T01:14:56.970Z,82.49
2017-12-06T01:15:37.534Z,82.68
2017-12-06T01:16:18.086Z,82.58
2017-12-06T01:16:58.650Z,82.49
2017-12-06T01:17:39.212Z,82.87
2017-12-06T01:18:19.776Z,82.49
2017-12-06T01:19:00.708Z,82.2
2017-12-06T01:19:41.281Z,82.49
2017-12-06T01:20:21.854Z,82.58
2017-12-06T01:21:02.420Z,83.15
2017-12-06T01:21:42.992Z,83.44
2017-12-06T01:22:23.556Z,82.49
2017-12-06T01:23:04.134Z,82.39
2017-12-06T01:23:44.714Z,82.96
2017-12-06T01:24:25.318Z,82.49
2017-12-06T01:25:05.889Z,82.58
2017-12-06T01:25:46.441Z,82.96
2017-12-06T01:26:27.015Z,82.87
2017-12-06T01:27:07.581Z,82.62
2017-12-06T01:27:48.158Z,82.96
2017-12-06T01:28:28.716Z,82.77
2017-12-06T01:29:09.289Z,82.49
2017-12-06T01:29:49.840Z,82.53
2017-12-06T01:30:30.430Z,82.71
2017-12-06T01:31:10.987Z,82.77
2017-12-06T01:31:51.551Z,82.29
2017-12-06T01:32:32.122Z,82.34
2017-12-06T01:33:12.697Z,82.29
2017-12-06T01:33:53.290Z,82.24
2017-12-06T01:34:33.845Z,82.24
2017-12-06T01:35:14.407Z,82.53
2017-12-06T01:35:54.991Z,82.24
2017-12-06T01:36:35.590Z,82.24
2017-12-06T01:37:16.180Z,82.43
2017-12-06T01:37:56.761Z,82.34
2017-12-06T01:38:37.333Z,82.81
2017-12-06T01:39:17.894Z,82.15
2017-12-06T01:39:58.464Z,81.96
2017-12-06T01:40:39.249Z,82.53
2017-12-06T01:41:20.065Z,81.86
2017-12-06T01:42:00.627Z,81.96
2017-12-06T01:42:41.216Z,82.24
2017-12-06T01:43:21.787Z,82.24
2017-12-06T01:44:02.373Z,82.1
2017-12-06T01:44:42.950Z,81.86
2017-12-06T01:45:23.516Z,81.73
2017-12-06T01:46:04.076Z,82.24
2017-12-06T01:46:44.632Z,82.01
2017-12-06T01:47:25.228Z,82.34
2017-12-06T01:48:05.787Z,82.24
2017-12-06T01:48:46.368Z,82.43
2017-12-06T01:49:26.973Z,82.39
2017-12-06T01:50:07.556Z,82.2
2017-12-06T01:50:48.116Z,82.49
2017-12-06T01:51:28.674Z,82.53
2017-12-06T01:52:09.251Z,82.87
2017-12-06T01:52:49.828Z,82.68
2017-12-06T01:53:30.425Z,82.49
2017-12-06T01:54:11.000Z,82.91
2017-12-06T01:54:51.585Z,82.29
2017-12-06T01:55:32.172Z,82.39
2017-12-06T01:56:12.753Z,83.15
2017-12-06T01:56:53.335Z,83.34
2017-12-06T01:57:33.912Z,83.15
2017-12-06T01:58:14.480Z,83.62
2017-12-06T01:58:55.032Z,83.67
2017-12-06T01:59:35.606Z,83.39
2017-12-06T02:00:16.202Z,83.29
2017-12-06T02:00:56.774Z,83.53
2017-12-06T02:01:37.336Z,83.62
2017-12-06T02:02:17.915Z,83.62
2017-12-06T02:02:58.475Z,83.91
2017-12-06T02:03:39.047Z,83.72
2017-12-06T02:04:19.614Z,83.82
2017-12-06T02:05:00.202Z,83.82
2017-12-06T02:05:40.779Z,83.82
2017-12-06T02:06:21.418Z,83.82
2017-12-06T02:07:01.993Z,84.01
2017-12-06T02:07:42.572Z,83.82
2017-12-06T02:08:23.137Z,84.29
2017-12-06T02:09:03.723Z,83.91
2017-12-06T02:09:44.272Z,84.29
2017-12-06T02:10:24.849Z,84.48
2017-12-06T02:11:05.408Z,84.39
2017-12-06T02:11:45.965Z,84.39
2017-12-06T02:12:26.531Z,84.29
2017-12-06T02:13:07.101Z,84.01
2017-12-06T02:13:47.680Z,84.2
2017-12-06T02:14:28.238Z,84.29
2017-12-06T02:15:08.803Z,84.58
2017-12-06T02:15:49.363Z,84.39
2017-12-06T02:16:29.928Z,84.39
2017-12-06T02:17:10.497Z,84.58
2017-12-06T02:17:51.057Z,84.77
2017-12-06T02:18:31.615Z,84.48
2017-12-06T02:19:12.176Z,84.39
2017-12-06T02:19:52.787Z,84.48
2017-12-06T02:20:33.356Z,84.39
2017-12-06T02:21:13.964Z,84.39
2017-12-06T02:21:54.524Z,84.39
2017-12-06T02:22:35.123Z,84.01
2017-12-06T02:23:15.680Z,84.29
2017-12-06T02:23:56.243Z,84.29
2017-12-06T02:24:36.792Z,84.29
2017-12-06T02:25:17.360Z,84.29
2017-12-06T02:25:57.945Z,84.2
2017-12-06T02:26:38.515Z,84.67
2017-12-06T02:27:19.079Z,84.29
2017-12-06T02:27:59.661Z,84.29
2017-12-06T02:28:40.223Z,84.29
2017-12-06T02:29:20.803Z,84.39
2017-12-06T02:30:01.370Z,84.1
2017-12-06T02:30:41.950Z,84.58
2017-12-06T02:31:22.510Z,84.29
2017-12-06T02:32:03.072Z,84.39
2017-12-06T02:32:43.634Z,84.39
2017-12-06T02:33:24.209Z,84.2
2017-12-06T02:34:04.776Z,84.01
2017-12-06T02:34:45.346Z,84.67
2017-12-06T02:35:25.909Z,84.77
2017-12-06T02:36:06.478Z,84.77
2017-12-06T02:36:47.049Z,84.67
2017-12-06T02:37:27.612Z,84.86
2017-12-06T02:38:08.194Z,84.29
2017-12-06T02:38:48.760Z,84.29
2017-12-06T02:39:29.310Z,84.48
2017-12-06T02:40:09.895Z,84.2
2017-12-06T02:40:50.457Z,84.39
2017-12-06T02:41:31.048Z,84.48
2017-12-06T02:42:11.623Z,84.48
2017-12-06T02:42:52.188Z,84.39
2017-12-06T02:43:32.753Z,84.39
2017-12-06T02:44:13.305Z,84.67
2017-12-06T02:44:53.877Z,84.86
2017-12-06T02:45:34.464Z,85.24
2017-12-06T02:46:15.062Z,84.77
2017-12-06T02:46:55.644Z,84.29
2017-12-06T02:47:36.248Z,84.1
2017-12-06T02:48:16.764Z,84.1
2017-12-06T02:48:57.361Z,84.01
2017-12-06T02:49:37.973Z,84.48
2017-12-06T02:50:18.521Z,84.29
2017-12-06T02:50:59.127Z,84.1
2017-12-06T02:51:39.691Z,84.2
2017-12-06T02:52:20.276Z,84.29
2017-12-06T02:53:00.852Z,84.58
2017-12-06T02:53:41.458Z,84.58
2017-12-06T02:54:22.028Z,84.48
2017-12-06T02:55:02.591Z,84.29
2017-12-06T02:55:43.143Z,84.48
2017-12-06T02:56:23.736Z,84.1
2017-12-06T02:57:04.303Z,84.2
2017-12-06T02:57:44.890Z,84.01
2017-12-06T02:58:25.450Z,84.39
2017-12-06T02:59:06.024Z,84.48
2017-12-06T02:59:46.589Z,84.2
2017-12-06T03:00:27.149Z,84.2
2017-12-06T03:01:07.719Z,84.29
2017-12-06T03:01:48.288Z,83.72
2017-12-06T03:02:28.856Z,83.62
2017-12-06T03:03:09.423Z,83.72
2017-12-06T03:03:50.001Z,84.01
2017-12-06T03:04:30.561Z,83.82
2017-12-06T03:05:11.126Z,84.1
2017-12-06T03:05:51.747Z,84.1
2017-12-06T03:06:32.414Z,84.2
2017-12-06T03:07:13.003Z,84.29
2017-12-06T03:07:53.586Z,83.62
2017-12-06T03:08:34.150Z,84.2
2017-12-06T03:09:14.718Z,84.2
2017-12-06T03:09:55.295Z,84.2
2017-12-06T03:10:35.871Z,84.48
2017-12-06T03:11:16.443Z,84.48
2017-12-06T03:11:57.002Z,84.01
2017-12-06T03:12:37.567Z,83.82
2017-12-06T03:13:18.179Z,83.53
2017-12-06T03:13:58.726Z,83.62
2017-12-06T03:14:39.277Z,84.1
2017-12-06T03:15:19.851Z,84.2
2017-12-06T03:16:00.423Z,84.48
2017-12-06T03:16:40.989Z,84.48
2017-12-06T03:17:21.552Z,84.48
2017-12-06T03:18:02.172Z,84.29
2017-12-06T03:18:42.797Z,84.48
2017-12-06T03:19:23.383Z,84.39
2017-12-06T03:20:03.950Z,84.29
2017-12-06T03:20:44.539Z,84.48
2017-12-06T03:21:25.103Z,84.48
2017-12-06T03:22:05.668Z,84.29
2017-12-06T03:22:46.240Z,84.29
2017-12-06T03:23:26.814Z,84.29
2017-12-06T03:24:07.401Z,84.48
2017-12-06T03:24:47.975Z,84.2
2017-12-06T03:25:28.546Z,84.48
2017-12-06T03:26:09.120Z,84.1
2017-12-06T03:26:49.686Z,84.29
2017-12-06T03:27:30.267Z,83.62
2017-12-06T03:28:10.838Z,84.39
2017-12-06T03:28:51.396Z,83.53
2017-12-06T03:29:31.980Z,83.82
2017-12-06T03:30:12.546Z,84.29
2017-12-06T03:30:53.116Z,84.01
2017-12-06T03:31:33.682Z,84.39
2017-12-06T03:32:14.259Z,83.82
2017-12-06T03:32:54.826Z,83.72
2017-12-06T03:33:35.410Z,83.82
2017-12-06T03:34:15.961Z,83.53
2017-12-06T03:34:56.523Z,83.82
2017-12-06T03:35:37.100Z,83.91
2017-12-06T03:36:17.663Z,83.72
2017-12-06T03:36:58.250Z,83.62
2017-12-06T03:37:38.825Z,84.39
2017-12-06T03:38:19.389Z,84.29
2017-12-06T03:38:59.954Z,83.82
2017-12-06T03:39:40.520Z,83.62
2017-12-06T03:40:21.093Z,83.72
2017-12-06T03:41:01.655Z,83.82
2017-12-06T03:41:42.224Z,83.91
2017-12-06T03:42:22.783Z,83.82
2017-12-06T03:43:03.352Z,83.82
2017-12-06T03:43:43.920Z,83.62
2017-12-06T03:44:24.493Z,83.82
2017-12-06T03:45:05.057Z,83.82
2017-12-06T03:45:45.617Z,84.01
2017-12-06T03:46:26.190Z,83.72
2017-12-06T03:47:06.758Z,83.62
2017-12-06T03:47:47.323Z,84.1
2017-12-06T03:48:27.895Z,84.39
2017-12-06T03:49:08.471Z,84.2
2017-12-06T03:49:49.082Z,84.29
2017-12-06T03:50:29.653Z,84.48
2017-12-06T03:51:10.220Z,84.48
2017-12-06T03:51:50.805Z,83.91
2017-12-06T03:52:31.370Z,83.72
2017-12-06T03:53:11.963Z,83.82
2017-12-06T03:53:52.567Z,83.72
2017-12-06T03:54:33.147Z,83.82
2017-12-06T03:55:13.741Z,83.53
2017-12-06T03:55:54.310Z,83.72
2017-12-06T03:56:34.872Z,83.82
2017-12-06T03:57:15.436Z,83.72
2017-12-06T03:57:56.034Z,83.91
2017-12-06T03:58:36.602Z,84.29
2017-12-06T03:59:17.174Z,84.48
2017-12-06T03:59:57.747Z,84.48
2017-12-06T04:00:38.307Z,84.2
2017-12-06T04:01:18.887Z,84.01
2017-12-06T04:01:59.488Z,84.1
2017-12-06T04:02:40.074Z,84.29
2017-12-06T04:03:20.691Z,84.29
2017-12-06T04:04:01.262Z,84.01
2017-12-06T04:04:41.832Z,83.72
2017-12-06T04:05:22.442Z,83.25
2017-12-06T04:06:03.012Z,83.34
2017-12-06T04:06:43.573Z,83.15
2017-12-06T04:07:24.143Z,83.25
2017-12-06T04:08:04.697Z,83.34
2017-12-06T04:08:45.291Z,83.34
2017-12-06T04:09:25.846Z,83.82
2017-12-06T04:10:06.418Z,83.91
2017-12-06T04:10:46.989Z,83.62
2017-12-06T04:11:27.553Z,83.62
2017-12-06T04:12:08.119Z,83.53
2017-12-06T04:12:48.687Z,83.25
2017-12-06T04:13:29.266Z,83.25
2017-12-06T04:14:09.855Z,83.53
2017-12-06T04:14:50.421Z,83.25
2017-12-06T04:15:30.985Z,82.87
2017-12-06T04:16:11.570Z,83.34
2017-12-06T04:16:52.152Z,83.44
2017-12-06T04:17:32.742Z,83.15
2017-12-06T04:18:13.342Z,82.87
2017-12-06T04:18:53.920Z,82.87
2017-12-06T04:19:34.499Z,82.49
2017-12-06T04:20:15.064Z,82.49
2017-12-06T04:20:55.630Z,82.39
2017-12-06T04:21:36.219Z,82.77
2017-12-06T04:22:16.784Z,82.29
2017-12-06T04:22:57.351Z,82.39
2017-12-06T04:23:37.905Z,83.15
2017-12-06T04:24:18.494Z,83.25
2017-12-06T04:24:59.053Z,82.87
2017-12-06T04:25:39.634Z,83.62
2017-12-06T04:26:20.207Z,83.44
2017-12-06T04:27:00.769Z,83.34
2017-12-06T04:27:41.329Z,83.34
2017-12-06T04:28:21.911Z,83.62
2017-12-06T04:29:02.507Z,83.53
2017-12-06T04:29:43.066Z,83.72
2017-12-06T04:30:23.637Z,83.82
2017-12-06T04:31:04.212Z,83.72
2017-12-06T04:31:44.817Z,83.72
2017-12-06T04:32:25.403Z,83.91
2017-12-06T04:33:05.978Z,83.91
2017-12-06T04:33:46.544Z,84.2
2017-12-06T04:34:27.125Z,84.39
2017-12-06T04:35:07.705Z,83.82
2017-12-06T04:35:48.305Z,84.39
2017-12-06T04:36:28.850Z,84.29
2017-12-06T04:37:09.412Z,84.39
2017-12-06T04:37:49.972Z,84.29
2017-12-06T04:38:30.545Z,84.29
2017-12-06T04:39:11.122Z,84.29
2017-12-06T04:39:51.700Z,84.2
2017-12-06T04:40:32.258Z,84.29
2017-12-06T04:41:12.819Z,84.29
2017-12-06T04:41:53.393Z,84.2
2017-12-06T04:42:33.956Z,84.39
2017-12-06T04:43:14.519Z,84.39
2017-12-06T04:43:55.095Z,84.1
2017-12-06T04:44:35.660Z,84.29
2017-12-06T04:45:16.246Z,84.1
2017-12-06T04:45:56.841Z,84.58
2017-12-06T04:46:37.421Z,84.2
2017-12-06T04:47:17.981Z,84.1
2017-12-06T04:47:58.554Z,84.39
2017-12-06T04:48:39.139Z,83.62
2017-12-06T04:49:19.718Z,83.25
2017-12-06T04:50:00.310Z,83.44
2017-12-06T04:50:40.868Z,82.87
2017-12-06T04:51:21.447Z,82.87
2017-12-06T04:52:02.034Z,82.49
2017-12-06T04:52:42.619Z,82.68
2017-12-06T04:53:23.225Z,82.58
2017-12-06T04:54:03.799Z,82.77
2017-12-06T04:54:44.393Z,82.58
2017-12-06T04:55:24.988Z,82.39
2017-12-06T04:56:05.575Z,82.58
2017-12-06T04:56:46.131Z,82.58
2017-12-06T04:57:26.701Z,82.58
2017-12-06T04:58:07.270Z,82.96
2017-12-06T04:58:47.857Z,82.49
2017-12-06T04:59:29.786Z,82.96
2017-12-06T05:00:10.485Z,82.2
2017-12-06T05:00:51.058Z,82.87
2017-12-06T05:01:31.640Z,82.2
2017-12-06T05:02:12.225Z,82.39
2017-12-06T05:02:52.809Z,82.29
2017-12-06T05:03:33.430Z,82.39
2017-12-06T05:04:13.982Z,82.39
2017-12-06T05:04:54.540Z,82.58
2017-12-06T05:05:35.109Z,82.96
2017-12-06T05:06:15.711Z,82.96
2017-12-06T05:06:56.286Z,82.96
2017-12-06T05:07:36.860Z,82.68
2017-12-06T05:08:17.422Z,82.58
2017-12-06T05:08:58.007Z,82.49
2017-12-06T05:09:38.585Z,82.29
2017-12-06T05:10:19.166Z,82.29
2017-12-06T05:10:59.760Z,82.68
2017-12-06T05:11:40.335Z,82.77
2017-12-06T05:12:20.904Z,82.49
2017-12-06T05:13:01.473Z,82.29
2017-12-06T05:13:42.049Z,82.58
2017-12-06T05:14:22.619Z,82.29
2017-12-06T05:15:03.183Z,82.29
2017-12-06T05:15:43.760Z,82.2
2017-12-06T05:16:24.349Z,82.39
2017-12-06T05:17:04.958Z,82.01
2017-12-06T05:17:45.526Z,82.2
2017-12-06T05:18:26.096Z,82.1
2017-12-06T05:19:06.675Z,81.92
2017-12-06T05:19:47.234Z,82.29
2017-12-06T05:20:27.819Z,82.2
2017-12-06T05:21:08.392Z,82.39
2017-12-06T05:21:48.952Z,81.82
2017-12-06T05:22:29.531Z,82.1
2017-12-06T05:23:10.098Z,82.39
2017-12-06T05:23:50.666Z,81.44
2017-12-06T05:24:31.219Z,81.63
2017-12-06T05:25:11.813Z,81.82
2017-12-06T05:25:52.416Z,81.54
2017-12-06T05:26:32.973Z,81.54
2017-12-06T05:27:13.523Z,81.63
2017-12-06T05:27:54.106Z,81.63
2017-12-06T05:28:34.682Z,81.92
2017-12-06T05:29:15.250Z,81.54
2017-12-06T05:29:55.842Z,81.73
2017-12-06T05:30:36.415Z,81.16
2017-12-06T05:31:17.017Z,81.25
2017-12-06T05:31:57.562Z,81.35
2017-12-06T05:32:38.136Z,81.25
2017-12-06T05:33:18.706Z,81.25
2017-12-06T05:33:59.266Z,80.96
2017-12-06T05:34:39.884Z,81.16
2017-12-06T05:35:20.425Z,81.16
2017-12-06T05:36:00.979Z,81.82
2017-12-06T05:36:41.542Z,81.63
2017-12-06T05:37:22.105Z,81.82
2017-12-06T05:38:02.684Z,81.63
2017-12-06T05:38:43.262Z,81.35
2017-12-06T05:39:23.840Z,81.16
2017-12-06T05:40:04.421Z,81.82
2017-12-06T05:40:45.001Z,81.73
2017-12-06T05:41:25.562Z,80.96
2017-12-06T05:42:06.136Z,80.87
2017-12-06T05:42:46.707Z,80.87
2017-12-06T05:43:27.264Z,81.16
2017-12-06T05:44:07.839Z,81.06
2017-12-06T05:44:48.412Z,81.16
2017-12-06T05:45:28.978Z,81.06
2017-12-06T05:46:09.550Z,81.06
2017-12-06T05:46:50.119Z,81.25
2017-12-06T05:47:30.703Z,81.06
2017-12-06T05:48:11.256Z,81.06
2017-12-06T05:48:51.821Z,81.16
2017-12-06T05:49:32.396Z,81.06
2017-12-06T05:50:12.955Z,80.87
2017-12-06T05:50:53.512Z,80.96
2017-12-06T05:51:34.090Z,80.96
2017-12-06T05:52:14.658Z,81.16
2017-12-06T05:52:55.228Z,81.16
2017-12-06T05:53:35.792Z,81.25
2017-12-06T05:54:16.366Z,80.96
2017-12-06T05:54:56.922Z,81.06
2017-12-06T05:55:37.503Z,80.77
2017-12-06T05:56:18.068Z,80.68
2017-12-06T05:56:58.665Z,80.49
2017-12-06T05:57:39.221Z,80.87
2017-12-06T05:58:19.822Z,80.87
2017-12-06T05:59:00.396Z,80.87
2017-12-06T05:59:40.951Z,80.77
2017-12-06T06:00:21.516Z,80.68
2017-12-06T06:01:02.077Z,80.21
2017-12-06T06:01:42.634Z,80.3
2017-12-06T06:02:23.184Z,80.02
2017-12-06T06:03:03.798Z,80.21
2017-12-06T06:03:44.356Z,80.02
2017-12-06T06:04:24.924Z,80.02
2017-12-06T06:05:05.567Z,79.83
2017-12-06T06:05:46.124Z,79.54
2017-12-06T06:06:26.696Z,79.73
2017-12-06T06:07:07.282Z,79.44
2017-12-06T06:07:47.874Z,79.35
2017-12-06T06:08:28.535Z,79.83
2017-12-06T06:09:09.077Z,80.11
2017-12-06T06:09:49.658Z,79.54
2017-12-06T06:10:30.224Z,79.54
2017-12-06T06:11:10.785Z,79.54
2017-12-06T06:11:52.068Z,79.73
2017-12-06T06:12:32.806Z,79.44
2017-12-06T06:13:13.376Z,79.73
2017-12-06T06:13:53.968Z,79.73
2017-12-06T06:14:34.555Z,79.73
2017-12-06T06:15:15.163Z,79.35
2017-12-06T06:15:55.752Z,79.16
2017-12-06T06:16:36.348Z,79.16
2017-12-06T06:17:17.793Z,79.06
2017-12-06T06:17:58.376Z,79.54
2017-12-06T06:18:38.950Z,79.63
2017-12-06T06:19:19.521Z,79.44
2017-12-06T06:20:00.103Z,79.73
2017-12-06T06:20:40.731Z,79.63
2017-12-06T06:21:21.320Z,79.06
2017-12-06T06:22:01.964Z,78.78
2017-12-06T06:22:42.561Z,79.73
2017-12-06T06:23:23.138Z,79.16
2017-12-06T06:24:04.048Z,78.78
2017-12-06T06:24:44.651Z,78.88
2017-12-06T06:25:25.279Z,78.88
2017-12-06T06:26:05.888Z,79.06
2017-12-06T06:26:46.442Z,78.59
2017-12-06T06:27:27.036Z,78.5
2017-12-06T06:28:07.592Z,79.06
2017-12-06T06:28:48.202Z,78.97
2017-12-06T06:29:28.781Z,78.78
2017-12-06T06:30:09.387Z,78.97
2017-12-06T06:30:49.978Z,79.25
2017-12-06T06:31:30.579Z,79.06
2017-12-06T06:32:11.154Z,78.97
2017-12-06T06:32:51.747Z,78.97
2017-12-06T06:33:32.341Z,78.78
2017-12-06T06:34:12.909Z,78.69
2017-12-06T06:34:53.479Z,78.97
2017-12-06T06:35:34.040Z,79.92
2017-12-06T06:36:14.626Z,79.06
2017-12-06T06:36:55.201Z,79.16
2017-12-06T06:37:35.796Z,78.78
2017-12-06T06:38:16.362Z,79.06
2017-12-06T06:38:56.937Z,79.54
2017-12-06T06:39:37.516Z,79.16
2017-12-06T06:40:18.147Z,79.16
2017-12-06T06:40:58.718Z,78.97
2017-12-06T06:41:39.329Z,78.78
2017-12-06T06:42:19.942Z,78.78
2017-12-06T06:43:00.506Z,78.88
2017-12-06T06:43:41.075Z,79.16
2017-12-06T06:44:21.649Z,79.06
2017-12-06T06:45:02.217Z,79.06
2017-12-06T06:45:42.819Z,78.88
2017-12-06T06:46:23.400Z,78.88
2017-12-06T06:47:03.983Z,78.97
2017-12-06T06:47:44.562Z,78.97
2017-12-06T06:48:25.158Z,78.97
2017-12-06T06:49:05.735Z,79.06
2017-12-06T06:49:46.328Z,79.16
2017-12-06T06:50:26.903Z,79.16
2017-12-06T06:51:07.476Z,78.88
2017-12-06T06:51:48.039Z,78.97
2017-12-06T06:52:28.610Z,78.3
2017-12-06T06:53:09.178Z,78.59
2017-12-06T06:53:49.748Z,78.5
2017-12-06T06:54:30.325Z,78.69
2017-12-06T06:55:10.899Z,78.78
2017-12-06T06:55:51.480Z,78.69
2017-12-06T06:56:32.097Z,78.59
2017-12-06T06:57:12.693Z,78.4
2017-12-06T06:57:53.258Z,78.88
2017-12-06T06:58:33.835Z,78.78
2017-12-06T06:59:14.404Z,78.88
2017-12-06T06:59:54.985Z,78.21
2017-12-06T07:00:35.552Z,78.69
2017-12-06T07:01:16.123Z,78.59
2017-12-06T07:01:56.693Z,78.59
2017-12-06T07:02:37.284Z,78.5
2017-12-06T07:03:17.888Z,78.78
2017-12-06T07:03:58.463Z,78.88
2017-12-06T07:04:39.056Z,78.59
2017-12-06T07:05:19.616Z,78.5
2017-12-06T07:06:00.192Z,78.59
2017-12-06T07:06:40.788Z,78.88
2017-12-06T07:07:21.392Z,78.3
2017-12-06T07:08:01.987Z,78.59
2017-12-06T07:08:42.576Z,78.21
2017-12-06T07:09:23.158Z,78.59
2017-12-06T07:10:03.766Z,78.3
2017-12-06T07:10:44.349Z,78.59
2017-12-06T07:11:24.924Z,78.5
2017-12-06T07:12:05.512Z,78.3
2017-12-06T07:12:46.089Z,78.4
2017-12-06T07:13:26.672Z,78.88
2017-12-06T07:14:08.903Z,78.59
2017-12-06T07:14:49.498Z,79.16
2017-12-06T07:15:30.377Z,78.88
2017-12-06T07:16:11.004Z,78.4
2017-12-06T07:16:51.574Z,78.59
2017-12-06T07:17:32.174Z,78.3
2017-12-06T07:18:12.732Z,78.4
2017-12-06T07:18:53.298Z,78.69
2017-12-06T07:19:33.873Z,78.5
2017-12-06T07:20:14.446Z,78.59
2017-12-06T07:20:55.027Z,78.5
2017-12-06T07:21:35.594Z,79.16
2017-12-06T07:22:16.191Z,78.78
2017-12-06T07:22:56.792Z,78.78
2017-12-06T07:23:37.365Z,78.5
2017-12-06T07:24:17.957Z,78.59
2017-12-06T07:24:58.556Z,78.3
2017-12-06T07:25:39.139Z,78.69
2017-12-06T07:26:19.700Z,78.59
2017-12-06T07:27:00.330Z,78.69
2017-12-06T07:27:40.925Z,78.3
2017-12-06T07:28:21.502Z,78.59
2017-12-06T07:29:02.080Z,78.78
2017-12-06T07:29:42.647Z,79.06
2017-12-06T07:30:23.208Z,78.88
2017-12-06T07:31:03.785Z,79.06
2017-12-06T07:31:44.359Z,78.88
2017-12-06T07:32:24.926Z,79.16
2017-12-06T07:33:05.502Z,79.16
2017-12-06T07:33:46.097Z,78.97
2017-12-06T07:34:26.680Z,78.78
2017-12-06T07:35:07.260Z,78.78
2017-12-06T07:35:47.844Z,79.25
2017-12-06T07:36:28.406Z,78.69
2017-12-06T07:37:09.006Z,79.06
2017-12-06T07:37:49.598Z,78.78
2017-12-06T07:38:30.172Z,78.97
2017-12-06T07:39:10.753Z,79.16
2017-12-06T07:39:51.352Z,79.16
2017-12-06T07:40:31.908Z,78.97
2017-12-06T07:41:12.549Z,78.88
2017-12-06T07:41:53.130Z,78.78
2017-12-06T07:42:33.708Z,78.88
2017-12-06T07:43:14.267Z,78.88
2017-12-06T07:43:54.845Z,79.06
2017-12-06T07:44:35.410Z,78.97
2017-12-06T07:45:16.091Z,79.06
2017-12-06T07:45:56.661Z,78.78
2017-12-06T07:46:37.252Z,79.06
2017-12-06T07:47:17.848Z,79.25
2017-12-06T07:47:58.426Z,79.16
2017-12-06T07:48:39.019Z,79.44
2017-12-06T07:49:19.677Z,79.35
2017-12-06T07:50:00.217Z,79.25
2017-12-06T07:50:40.804Z,79.35
2017-12-06T07:51:21.391Z,79.06
2017-12-06T07:52:01.954Z,79.06
2017-12-06T07:52:42.515Z,79.73
2017-12-06T07:53:23.115Z,79.73
2017-12-06T07:54:03.691Z,79.35
2017-12-06T07:54:44.287Z,79.63
2017-12-06T07:55:24.855Z,79.54
2017-12-06T07:56:05.438Z,79.44
2017-12-06T07:56:46.860Z,79.54
2017-12-06T07:57:27.424Z,79.35
2017-12-06T07:58:07.977Z,79.35
2017-12-06T07:58:48.550Z,79.35
2017-12-06T07:59:29.121Z,79.54
2017-12-06T08:00:09.716Z,79.44
2017-12-06T08:00:50.280Z,79.92
2017-12-06T08:01:30.844Z,79.44
2017-12-06T08:02:11.401Z,79.54
2017-12-06T08:02:51.974Z,79.44
2017-12-06T08:03:32.543Z,79.44
2017-12-06T08:04:13.120Z,79.54
2017-12-06T08:04:53.670Z,79.83
2017-12-06T08:05:34.274Z,79.73
2017-12-06T08:06:14.845Z,79.35
2017-12-06T08:06:55.436Z,79.44
2017-12-06T08:07:36.013Z,79.63
2017-12-06T08:08:16.633Z,79.44
2017-12-06T08:08:57.235Z,79.63
2017-12-06T08:09:37.829Z,79.63
2017-12-06T08:10:18.451Z,79.63
2017-12-06T08:10:59.032Z,79.44
2017-12-06T08:11:39.613Z,79.92
2017-12-06T08:12:20.193Z,80.21
2017-12-06T08:13:00.793Z,80.11
2017-12-06T08:13:41.358Z,80.3
2017-12-06T08:14:21.939Z,80.11
2017-12-06T08:15:02.537Z,80.3
2017-12-06T08:15:43.141Z,79.83
2017-12-06T08:16:23.718Z,79.83
2017-12-06T08:17:04.294Z,80.21
2017-12-06T08:17:44.856Z,82.29
2017-12-06T08:18:25.433Z,84.48
2017-12-06T08:19:05.982Z,85.62
2017-12-06T08:19:46.563Z,85.28
2017-12-06T08:20:27.149Z,84.52
2017-12-06T08:21:07.733Z,82.81
2017-12-06T08:21:48.299Z,83.48
2017-12-06T08:22:28.861Z,83.95
2017-12-06T08:23:09.456Z,82.48
2017-12-06T08:23:50.041Z,81.1
2017-12-06T08:24:30.613Z,81.24
2017-12-06T08:25:11.184Z,82.38
2017-12-06T08:25:51.758Z,82.76
2017-12-06T08:26:32.356Z,82.28
2017-12-06T08:27:12.924Z,80.19
2017-12-06T08:27:53.480Z,80.57
2017-12-06T08:28:34.096Z,79.81
2017-12-06T08:29:14.618Z,79.52
2017-12-06T08:29:55.198Z,79.47
2017-12-06T08:30:35.797Z,78.52
2017-12-06T08:31:16.373Z,77.66
2017-12-06T08:31:56.963Z,77.28
2017-12-06T08:32:37.533Z,76.71
2017-12-06T08:33:18.115Z,77.28
2017-12-06T08:33:58.683Z,77.09
2017-12-06T08:34:39.242Z,76.9
2017-12-06T08:35:19.819Z,76.81
2017-12-06T08:36:00.383Z,76.9
2017-12-06T08:36:40.946Z,77.76
2017-12-06T08:37:21.523Z,78.8
2017-12-06T08:38:02.120Z,77.76
2017-12-06T08:38:42.691Z,77.56
2017-12-06T08:39:23.257Z,77.37
2017-12-06T08:40:03.827Z,77.56
2017-12-06T08:40:44.402Z,75.76
2017-12-06T08:41:24.971Z,75.67
2017-12-06T08:42:05.524Z,75.38
2017-12-06T08:42:46.113Z,76.14
2017-12-06T08:43:26.710Z,75.28
2017-12-06T08:44:07.288Z,74.84
2017-12-06T08:44:47.880Z,74.71